Time;durP1;ratioP1;P1;durP2;ratioP2;P2;SDS_P1;SDS_P2;PMS_P1;PMS_P2;Temp;Humidity;BMP_temperature;BMP_pressure;BME280_temperature;BME280_humidity;BME280_pressure;Samples;Min_cycle;Max_cycle;Signal;HPM_P1;HPM_P2
2021/07/18 00:00:28;;;;;;;17.58;11.60;;;;;;;20.08;74.48;100227.19;2209423;40;20084;-87
2021/07/18 00:01:59;;;;;;;17.98;13.02;;;;;;;20.09;74.79;100237.00;2209272;40;20104;-88
2021/07/18 00:03:33;;;;;;;16.38;12.48;;;;;;;20.02;74.81;100235.28;2209697;40;20029;-87
2021/07/18 00:05:04;;;;;;;13.55;11.20;;;;;;;19.97;74.80;100225.06;2209579;40;20122;-87
2021/07/18 00:06:36;;;;;;;16.15;11.82;;;;;;;19.97;75.13;100226.94;2209050;40;20026;-86
2021/07/18 00:08:08;;;;;;;17.83;12.45;;;;;;;19.96;75.20;100239.66;2209461;40;20023;-87
2021/07/18 00:09:41;;;;;;;16.38;12.88;;;;;;;19.92;75.30;100230.25;2209534;40;20034;-89
2021/07/18 00:11:13;;;;;;;18.02;13.15;;;;;;;19.88;75.42;100226.25;2209497;40;20104;-89
2021/07/18 00:12:45;;;;;;;16.42;11.88;;;;;;;19.73;75.86;100235.34;2209392;40;20104;-88
2021/07/18 00:14:17;;;;;;;17.17;12.00;;;;;;;19.71;76.03;100234.72;2209469;40;20022;-90
2021/07/18 00:15:50;;;;;;;14.18;10.68;;;;;;;19.75;75.85;100233.25;2209398;40;20042;-88
2021/07/18 00:17:22;;;;;;;14.68;11.23;;;;;;;19.74;75.78;100231.56;2209560;40;20023;-87
2021/07/18 00:18:53;;;;;;;14.10;11.43;;;;;;;19.69;76.07;100242.22;2209492;40;20038;-88
2021/07/18 00:20:24;;;;;;;17.55;13.55;;;;;;;19.63;76.04;100233.00;2209475;40;20026;-89
2021/07/18 00:21:56;;;;;;;15.65;12.40;;;;;;;19.58;76.24;100248.19;2209779;40;20042;-87
2021/07/18 00:23:29;;;;;;;15.82;11.27;;;;;;;19.54;76.46;100236.06;2209162;40;20023;-88
2021/07/18 00:25:08;;;;;;;14.55;11.73;;;;;;;19.52;76.22;100238.16;2209441;40;20029;-87
2021/07/18 00:26:40;;;;;;;15.48;11.05;;;;;;;19.52;76.21;100240.84;2208962;40;20027;-87
2021/07/18 00:28:12;;;;;;;12.65;10.27;;;;;;;19.55;76.39;100235.03;2209281;40;20094;-87
2021/07/18 00:29:47;;;;;;;15.27;10.70;;;;;;;19.56;76.29;100242.97;2209189;40;20023;-88
2021/07/18 00:31:19;;;;;;;13.27;9.95;;;;;;;19.55;76.18;100246.72;2209145;40;20612;-87
2021/07/18 00:32:51;;;;;;;14.23;10.18;;;;;;;19.54;76.37;100239.63;2209311;40;20046;-87
2021/07/18 00:34:24;;;;;;;13.60;10.23;;;;;;;19.55;76.17;100235.03;2209268;40;20075;-86
2021/07/18 00:35:56;;;;;;;10.60;8.95;;;;;;;19.54;76.26;100233.38;2209310;40;20043;-88
2021/07/18 00:37:28;;;;;;;14.48;10.38;;;;;;;19.54;76.29;100242.31;2209369;40;20037;-88
2021/07/18 00:39:00;;;;;;;12.43;9.15;;;;;;;19.54;76.35;100236.06;2209352;40;20033;-88
2021/07/18 00:40:33;;;;;;;13.32;9.65;;;;;;;19.53;76.55;100231.69;2209327;40;20152;-88
2021/07/18 00:42:05;;;;;;;15.73;9.27;;;;;;;19.52;76.36;100240.84;2209477;40;20085;-88
2021/07/18 00:43:37;;;;;;;12.23;9.55;;;;;;;19.49;76.54;100239.38;2209726;40;20193;-88
2021/07/18 00:45:13;;;;;;;16.35;10.80;;;;;;;19.46;76.39;100232.47;2209603;40;20167;-87
2021/07/18 00:46:45;;;;;;;11.45;8.43;;;;;;;19.48;76.52;100233.13;2202835;40;20115;-88
2021/07/18 00:48:16;;;;;;;13.50;8.90;;;;;;;19.45;76.52;100233.53;2209472;40;20025;-88
2021/07/18 00:49:49;;;;;;;12.52;9.40;;;;;;;19.41;76.60;100226.81;2209801;40;20037;-88
2021/07/18 00:51:21;;;;;;;15.23;10.55;;;;;;;19.43;76.31;100226.59;2209500;40;20060;-88
2021/07/18 00:52:57;;;;;;;12.05;9.90;;;;;;;19.40;76.37;100227.84;2209548;40;20031;-87
2021/07/18 00:54:28;;;;;;;16.80;10.38;;;;;;;19.36;76.50;100228.44;2209680;40;20019;-86
2021/07/18 00:56:03;;;;;;;14.63;9.63;;;;;;;19.33;76.54;100229.69;2209668;40;20976;-88
2021/07/18 00:57:37;;;;;;;14.95;10.63;;;;;;;19.28;76.46;100224.84;2209393;40;20534;-87
2021/07/18 00:59:10;;;;;;;12.65;9.73;;;;;;;19.19;76.49;100231.47;2210607;40;20018;-88
2021/07/18 01:00:41;;;;;;;14.90;9.93;;;;;;;19.17;76.30;100228.09;2209672;40;20025;-87
2021/07/18 01:02:17;;;;;;;12.00;9.27;;;;;;;19.19;76.38;100234.16;2209748;40;20033;-89
2021/07/18 01:03:51;;;;;;;11.60;8.73;;;;;;;19.15;76.33;100227.47;2209512;40;20088;-87
2021/07/18 01:05:23;;;;;;;15.38;9.68;;;;;;;19.11;76.20;100239.75;2209471;40;20124;-88
2021/07/18 01:06:55;;;;;;;11.23;7.07;;;;;;;19.09;75.99;100237.22;2209643;40;20033;-87
2021/07/18 01:08:28;;;;;;;13.73;9.27;;;;;;;19.09;75.67;100242.63;2203546;40;20035;-87
2021/07/18 01:09:58;;;;;;;11.95;8.85;;;;;;;19.05;75.52;100240.50;2203639;40;20027;-87
2021/07/18 01:11:32;;;;;;;11.10;8.52;;;;;;;19.05;75.82;100240.50;2203422;40;20031;-87
2021/07/18 01:13:05;;;;;;;10.30;7.90;;;;;;;19.03;75.64;100238.00;2203240;40;20043;-88
2021/07/18 01:14:37;;;;;;;10.48;7.32;;;;;;;19.05;75.42;100235.94;2203344;40;20039;-87
2021/07/18 01:16:07;;;;;;;8.48;6.95;;;;;;;19.08;75.08;100230.09;2203353;40;20037;-88
2021/07/18 01:17:40;;;;;;;9.65;7.13;;;;;;;19.05;74.71;100230.53;2203820;40;20176;-88
2021/07/18 06:10:01;;;;;;;6.95;2.70;;;;;;;18.80;63.31;100308.59;1780828;23;20455;-87
2021/07/18 06:11:45;;;;;;;12.25;2.75;;;;;;;18.84;62.98;100320.75;2247241;23;20053;-83
2021/07/18 06:13:17;;;;;;;6.35;2.40;;;;;;;18.91;62.45;100316.22;2205446;40;20046;-83
2021/07/18 06:15:13;;;;;;;7.07;2.28;;;;;;;18.96;62.22;100312.97;2208046;40;20119;-84
2021/07/18 06:16:47;;;;;;;8.57;2.55;;;;;;;18.98;61.93;100308.19;2209899;40;20079;-82
2021/07/18 06:18:19;;;;;;;7.72;2.05;;;;;;;18.98;61.85;100310.91;2203561;40;20058;-86
2021/07/18 06:19:50;;;;;;;4.53;2.22;;;;;;;19.02;61.14;100312.19;2197465;40;20046;-86
2021/07/18 06:21:22;;;;;;;5.28;2.42;;;;;;;19.02;61.22;100313.03;2197475;40;20134;-87
2021/07/18 06:22:54;;;;;;;8.35;2.50;;;;;;;19.02;60.97;100312.19;2197395;40;20023;-82
2021/07/18 06:24:25;;;;;;;7.40;2.33;;;;;;;18.99;60.67;100309.84;2197507;40;20023;-84
2021/07/18 06:25:56;;;;;;;7.65;2.53;;;;;;;19.02;60.81;100313.03;2197434;40;20063;-85
2021/07/18 06:27:29;;;;;;;7.18;2.63;;;;;;;19.07;60.41;100301.63;2197677;40;20477;-85
2021/07/18 06:29:00;;;;;;;8.13;2.30;;;;;;;19.12;60.52;100301.03;2197860;40;20027;-84
2021/07/18 06:30:32;;;;;;;4.32;2.33;;;;;;;19.16;60.39;100305.00;2197824;40;20052;-84
2021/07/18 06:32:05;;;;;;;5.60;1.90;;;;;;;19.17;60.21;100310.25;2197771;40;20038;-86
2021/07/18 06:33:37;;;;;;;4.28;2.10;;;;;;;19.21;60.03;100312.56;2197864;40;20038;-86
2021/07/18 06:35:10;;;;;;;6.97;2.17;;;;;;;19.21;60.31;100307.13;2198164;40;20023;-86
2021/07/18 06:36:41;;;;;;;3.85;1.80;;;;;;;19.24;60.44;100309.47;2197859;40;20083;-86
2021/07/18 06:38:13;;;;;;;4.88;1.95;;;;;;;19.29;60.26;100315.13;2197859;40;20703;-85
2021/07/18 06:39:44;;;;;;;4.43;1.70;;;;;;;19.32;59.88;100317.44;2197386;40;20023;-87
2021/07/18 06:41:16;;;;;;;4.40;2.10;;;;;;;19.34;59.85;100318.09;2197766;40;20046;-85
2021/07/18 06:42:49;;;;;;;6.13;2.38;;;;;;;19.42;59.52;100322.50;2197840;40;20632;-85
2021/07/18 06:44:21;;;;;;;5.65;2.03;;;;;;;19.45;59.38;100319.41;2197839;40;20655;-85
2021/07/18 06:45:53;;;;;;;5.55;2.00;;;;;;;19.50;59.40;100325.09;2197738;40;20700;-85
2021/07/18 06:47:25;;;;;;;4.65;1.80;;;;;;;19.54;59.31;100320.13;2197877;40;20039;-86
2021/07/18 06:48:55;;;;;;;5.35;1.83;;;;;;;19.59;59.20;100312.22;2197726;40;20550;-86
2021/07/18 06:50:27;;;;;;;5.20;2.20;;;;;;;19.61;58.92;100315.59;2197787;40;20039;-87
2021/07/18 06:51:59;;;;;;;6.03;2.30;;;;;;;19.69;58.79;100318.13;2197751;40;20035;-85
2021/07/18 06:53:31;;;;;;;5.43;1.70;;;;;;;19.74;58.68;100310.22;2197874;40;20479;-86
2021/07/18 06:55:03;;;;;;;5.13;2.20;;;;;;;19.85;58.49;100313.44;2197884;40;20043;-85
2021/07/18 06:56:35;;;;;;;4.93;2.47;;;;;;;19.90;58.25;100313.72;2197728;40;20585;-84
2021/07/18 06:58:09;;;;;;;4.65;2.80;;;;;;;19.88;58.19;100318.50;2197752;40;20031;-84
2021/07/18 06:59:40;;;;;;;5.20;2.22;;;;;;;19.88;58.33;100321.19;2197626;40;20035;-86
2021/07/18 07:01:11;;;;;;;8.32;1.98;;;;;;;19.89;58.05;100312.84;2197568;40;20043;-85
2021/07/18 07:02:43;;;;;;;4.30;1.40;;;;;;;19.94;57.93;100314.97;2198207;40;20042;-86
2021/07/18 07:04:15;;;;;;;6.18;1.90;;;;;;;20.01;57.93;100321.28;2197765;40;20072;-85
2021/07/18 07:05:47;;;;;;;7.22;1.83;;;;;;;20.10;57.66;100317.38;2190809;40;20082;-85
2021/07/18 07:07:18;;;;;;;3.90;1.60;;;;;;;20.27;57.50;100317.84;2195365;40;20031;-85
2021/07/18 07:08:49;;;;;;;4.15;1.50;;;;;;;20.45;56.79;100311.03;2197815;40;20093;-85
2021/07/18 07:10:21;;;;;;;7.10;1.80;;;;;;;20.61;56.50;100319.88;2196928;40;20030;-85
2021/07/18 07:11:53;;;;;;;7.05;1.67;;;;;;;20.73;56.40;100310.94;2184536;40;20599;-85
2021/07/18 07:13:26;;;;;;;4.45;1.90;;;;;;;20.86;56.14;100317.47;2192767;40;20051;-84
2021/07/18 07:15:00;;;;;;;3.72;1.90;;;;;;;20.98;56.15;100318.50;2184991;40;20110;-82
2021/07/18 07:16:32;;;;;;;5.03;2.00;;;;;;;21.08;55.67;100311.81;2177253;40;20040;-84
2021/07/18 07:18:04;;;;;;;3.72;1.60;;;;;;;21.20;55.71;100315.59;2169020;40;20653;-83
2021/07/18 07:19:35;;;;;;;5.03;1.60;;;;;;;21.31;55.05;100309.53;2173691;40;20044;-84
2021/07/18 07:21:08;;;;;;;4.38;1.40;;;;;;;21.42;54.84;100316.22;2178776;40;20044;-83
2021/07/18 07:22:39;;;;;;;5.07;1.92;;;;;;;21.53;54.67;100314.78;2166973;41;20034;-83
2021/07/18 07:24:11;;;;;;;4.78;1.40;;;;;;;21.63;54.22;100312.47;2167202;41;20044;-84
2021/07/18 07:25:42;;;;;;;4.38;1.55;;;;;;;21.60;54.24;100312.91;2167268;41;20036;-84
2021/07/18 07:27:14;;;;;;;5.70;1.90;;;;;;;21.68;53.80;100313.72;2161111;41;20037;-82
2021/07/18 07:28:47;;;;;;;4.93;1.83;;;;;;;21.63;54.13;100309.75;2172649;40;20036;-83
2021/07/18 07:30:19;;;;;;;6.82;1.65;;;;;;;21.59;54.12;100304.94;2183592;40;20035;-83
2021/07/18 07:31:51;;;;;;;8.23;1.67;;;;;;;21.57;54.21;100302.41;2178049;40;20067;-85
2021/07/18 07:33:22;;;;;;;3.83;1.98;;;;;;;21.60;54.58;100312.91;2184908;40;20447;-82
2021/07/18 07:34:54;;;;;;;5.18;1.40;;;;;;;21.80;54.04;100307.41;2186009;40;20043;-82
2021/07/18 07:36:26;;;;;;;4.47;1.83;;;;;;;22.03;53.61;100311.56;2187886;40;20046;-83
2021/07/18 07:37:58;;;;;;;4.90;1.75;;;;;;;22.03;53.26;100313.44;2190095;40;20031;-81
2021/07/18 07:39:29;;;;;;;5.85;1.60;;;;;;;22.03;53.51;100311.56;2191057;40;20488;-82
2021/07/18 07:41:02;;;;;;;6.03;1.55;;;;;;;22.16;53.26;100307.09;2191077;40;20040;-83
2021/07/18 07:42:33;;;;;;;5.60;1.80;;;;;;;22.31;52.61;100309.56;2191212;40;20034;-85
2021/07/18 07:44:07;;;;;;;4.30;1.30;;;;;;;22.37;52.81;100306.81;2191257;40;20052;-81
2021/07/18 07:45:40;;;;;;;5.10;2.05;;;;;;;22.42;52.76;100303.47;2190544;40;20039;-83
2021/07/18 07:47:11;;;;;;;5.60;1.50;;;;;;;22.41;52.88;100313.53;2188677;40;20023;-81
2021/07/18 07:48:43;;;;;;;4.38;1.65;;;;;;;22.52;52.91;100309.28;2187649;40;20047;-83
2021/07/18 07:50:15;;;;;;;4.32;1.80;;;;;;;22.74;52.40;100308.97;2190475;40;20035;-82
2021/07/18 07:51:46;;;;;;;5.65;1.60;;;;;;;22.83;52.11;100310.38;2187143;40;20043;-82
2021/07/18 07:53:18;;;;;;;3.60;1.55;;;;;;;22.89;51.68;100308.66;2192825;40;20466;-82
2021/07/18 07:54:49;;;;;;;6.60;2.00;;;;;;;22.92;51.52;100312.81;2195409;40;20043;-82
2021/07/18 07:56:21;;;;;;;6.75;1.85;;;;;;;22.99;51.38;100316.34;2191682;40;20122;-83
2021/07/18 07:57:53;;;;;;;4.53;1.77;;;;;;;22.90;51.56;100318.50;2195077;40;20593;-82
2021/07/18 07:59:26;;;;;;;4.97;1.60;;;;;;;23.08;51.57;100309.56;2195531;40;20027;-84
2021/07/18 08:00:58;;;;;;;5.90;1.70;;;;;;;23.18;51.10;100311.81;2194839;40;20035;-80
2021/07/18 08:02:34;;;;;;;5.32;2.13;;;;;;;22.96;51.58;100304.00;2200432;40;20073;-82
2021/07/18 08:04:06;;;;;;;7.75;2.03;;;;;;;22.96;51.77;100309.44;2200263;40;20035;-81
2021/07/18 08:05:38;;;;;;;7.00;2.15;;;;;;;22.90;51.85;100300.25;2193526;40;20028;-83
2021/07/18 08:07:09;;;;;;;4.03;1.88;;;;;;;22.99;51.86;100305.44;2197458;40;20043;-85
2021/07/18 08:08:41;;;;;;;6.45;2.22;;;;;;;23.21;51.62;100301.31;2195869;40;20063;-81
2021/07/18 08:10:13;;;;;;;5.03;2.00;;;;;;;23.48;51.15;100301.06;2180509;41;20083;-82
2021/07/18 08:11:45;;;;;;;10.57;1.95;;;;;;;23.68;50.52;100289.13;2187549;40;20031;-82
2021/07/18 08:13:18;;;;;;;4.68;1.60;;;;;;;23.69;50.43;100301.72;2183144;40;20074;-82
2021/07/18 08:15:44;;;;;;;11.50;1.83;;;;;;;23.44;50.78;100299.03;2190305;40;20040;-82
2021/07/18 08:17:46;;;;;;;4.40;1.70;;;;;;;23.67;50.72;100303.84;2181448;41;20076;-83
2021/07/18 08:19:31;;;;;;;13.10;2.10;;;;;;;23.99;49.74;100301.84;2184903;40;20311;-83
2021/07/18 08:21:03;;;;;;;5.30;1.98;;;;;;;24.01;49.71;100301.59;2186344;40;20063;-81
2021/07/18 08:22:46;;;;;;;5.63;1.85;;;;;;;24.11;49.60;100310.09;2185557;40;20126;-81
2021/07/18 08:24:18;;;;;;;4.78;1.80;;;;;;;24.02;50.11;100307.91;2187393;40;20044;-81
2021/07/18 08:25:48;;;;;;;5.10;1.88;;;;;;;24.12;49.77;100303.56;2187826;40;20558;-82
2021/07/18 08:27:21;;;;;;;4.72;1.70;;;;;;;24.25;49.24;100308.03;2189447;40;20043;-80
2021/07/18 08:28:53;;;;;;;4.10;1.92;;;;;;;24.16;49.27;100300.41;2188025;40;20335;-81
2021/07/18 08:30:25;;;;;;;4.75;2.00;;;;;;;24.17;49.46;100304.81;2188586;40;20038;-81
2021/07/18 08:31:58;;;;;;;5.95;1.85;;;;;;;24.34;49.01;100302.25;2192420;40;20044;-82
2021/07/18 08:33:31;;;;;;;5.63;1.70;;;;;;;24.54;48.75;100291.09;2190472;40;20056;-83
2021/07/18 08:35:03;;;;;;;5.30;1.83;;;;;;;24.50;48.71;100293.44;2192253;40;20035;-84
2021/07/18 08:36:35;;;;;;;3.80;1.77;;;;;;;24.57;48.73;100285.13;2190460;40;20054;-83
2021/07/18 08:38:07;;;;;;;3.90;1.90;;;;;;;24.70;48.42;100287.72;2191381;40;20032;-82
2021/07/18 08:39:39;;;;;;;4.78;2.00;;;;;;;24.84;48.00;100284.78;2191008;40;20027;-83
2021/07/18 08:41:11;;;;;;;3.75;1.40;;;;;;;24.89;47.70;100284.91;2173290;40;20098;-82
2021/07/18 08:42:43;;;;;;;3.83;1.77;;;;;;;25.03;47.13;100286.34;2166842;41;20038;-82
2021/07/18 08:44:15;;;;;;;8.90;1.98;;;;;;;24.76;47.34;100288.69;2166003;41;20041;-84
2021/07/18 08:45:47;;;;;;;5.13;1.80;;;;;;;24.54;47.89;100285.63;2173121;40;20897;-83
2021/07/18 08:47:18;;;;;;;12.93;2.67;;;;;;;24.65;48.12;100290.28;2172450;40;20711;-84
2021/07/18 08:48:51;;;;;;;5.40;1.58;;;;;;;24.96;47.67;100282.91;2173339;40;20033;-82
2021/07/18 08:50:23;;;;;;;5.40;2.10;;;;;;;25.30;46.80;100285.09;2173466;40;20225;-82
2021/07/18 08:51:54;;;;;;;4.68;1.60;;;;;;;25.64;46.46;100286.19;2173171;40;20332;-84
2021/07/18 08:53:27;;;;;;;4.93;1.60;;;;;;;25.87;45.60;100286.41;2163443;41;20066;-83
2021/07/18 08:55:02;;;;;;;5.22;1.95;;;;;;;25.83;45.94;100283.31;2161668;41;20042;-85
2021/07/18 08:56:36;;;;;;;4.97;1.98;;;;;;;25.77;45.89;100293.31;2161314;41;20053;-83
2021/07/18 08:58:08;;;;;;;5.13;2.08;;;;;;;25.85;45.85;100289.38;2155094;41;20050;-84
2021/07/18 08:59:38;;;;;;;5.90;1.55;;;;;;;25.73;45.91;100291.31;2154524;41;20042;-83
2021/07/18 09:01:12;;;;;;;5.22;1.95;;;;;;;25.85;45.70;100286.66;2163393;41;20033;-83
2021/07/18 09:02:44;;;;;;;6.32;2.30;;;;;;;26.05;45.06;100285.41;2169865;41;20065;-85
2021/07/18 09:04:17;;;;;;;5.07;2.08;;;;;;;25.90;45.04;100285.94;2170847;41;20029;-82
2021/07/18 09:05:52;;;;;;;9.13;1.83;;;;;;;25.75;44.88;100289.16;2175932;41;20032;-82
2021/07/18 09:07:23;;;;;;;4.95;2.20;;;;;;;25.49;45.71;100292.16;2186389;40;20094;-83
2021/07/18 09:08:55;;;;;;;7.30;2.45;;;;;;;25.46;46.12;100292.63;2190633;40;20043;-83
2021/07/18 09:10:29;;;;;;;5.18;2.10;;;;;;;25.85;45.48;100283.91;2189897;40;20047;-82
2021/07/18 09:12:05;;;;;;;5.88;1.90;;;;;;;26.26;44.54;100273.81;2190288;40;20038;-80
2021/07/18 09:13:37;;;;;;;4.68;1.88;;;;;;;26.43;44.21;100273.06;2187931;40;20404;-81
2021/07/18 09:15:10;;;;;;;6.90;2.15;;;;;;;26.60;43.87;100268.44;2193075;40;20510;-84
2021/07/18 09:16:43;;;;;;;9.57;2.58;;;;;;;26.75;43.34;100270.63;2194707;40;20039;-81
2021/07/18 09:18:18;;;;;;;6.35;1.92;;;;;;;26.86;42.78;100265.34;2200436;40;20030;-82
2021/07/18 09:19:51;;;;;;;5.80;2.20;;;;;;;27.01;42.84;100271.09;2203057;40;20110;-81
2021/07/18 09:21:22;;;;;;;5.22;1.92;;;;;;;27.08;42.68;100258.03;2203566;40;20023;-82
2021/07/18 09:23:10;;;;;;;6.93;2.22;;;;;;;27.21;42.19;100254.13;2202853;40;20027;-82
2021/07/18 09:24:44;;;;;;;5.72;1.83;;;;;;;27.26;42.24;100256.09;2192364;40;20031;-82
2021/07/18 09:26:22;;;;;;;4.20;1.58;;;;;;;27.51;41.87;100254.88;2189893;40;20052;-82
2021/07/18 09:27:54;;;;;;;4.35;1.60;;;;;;;27.80;41.37;100258.28;2188518;40;20036;-84
2021/07/18 09:32:41;;;;;;;6.03;1.80;;;;;;;27.64;41.49;100242.69;2208781;40;20039;-84
2021/07/18 09:34:12;;;;;;;6.55;2.33;;;;;;;27.85;40.95;100241.88;2202815;40;20042;-83
2021/07/18 09:35:45;;;;;;;5.68;2.13;;;;;;;28.09;40.21;100243.56;2202350;40;20027;-82
2021/07/18 09:37:22;;;;;;;5.15;1.80;;;;;;;28.30;40.38;100239.94;2202463;40;20038;-82
2021/07/18 09:39:05;;;;;;;6.28;2.08;;;;;;;28.52;39.75;100235.50;2201063;40;20019;-83
2021/07/18 09:40:39;;;;;;;9.02;1.52;;;;;;;28.37;40.01;100233.44;2208018;40;20029;-82
2021/07/18 09:42:42;;;;;;;6.70;2.00;;;;;;;28.43;39.92;100244.22;2201945;40;20042;-84
2021/07/18 09:44:47;;;;;;;5.25;2.05;;;;;;;28.46;39.62;100238.19;2203799;40;20043;-85
2021/07/18 09:46:31;;;;;;;5.45;1.88;;;;;;;27.50;40.81;100244.97;2189769;40;20032;-86
2021/07/18 09:48:05;;;;;;;5.32;2.35;;;;;;;27.42;41.43;100240.72;2203116;40;20034;-85
2021/07/18 09:51:13;;;;;;;8.32;1.90;;;;;;;28.16;39.90;100228.53;2210466;40;20034;-80
2021/07/18 09:52:48;;;;;;;4.82;1.80;;;;;;;28.16;40.11;100227.72;2212493;40;20041;-81
2021/07/18 09:54:20;;;;;;;8.63;2.00;;;;;;;28.05;40.37;100231.38;2216865;40;20390;-81
2021/07/18 09:55:57;;;;;;;5.32;1.73;;;;;;;28.04;40.45;100222.31;2208121;40;20053;-81
2021/07/18 09:57:30;;;;;;;5.60;1.92;;;;;;;28.14;40.25;100230.72;2211515;40;20080;-82
2021/07/18 09:59:03;;;;;;;6.75;2.00;;;;;;;28.46;39.80;100215.38;2210700;40;20413;-81
2021/07/18 10:00:40;;;;;;;5.00;1.63;;;;;;;28.68;39.21;100217.19;2198960;40;20403;-82
2021/07/18 10:02:12;;;;;;;5.35;1.58;;;;;;;28.78;38.97;100215.41;2202576;40;20073;-82
2021/07/18 10:03:47;;;;;;;5.63;1.75;;;;;;;28.75;39.42;100217.88;2200023;40;20564;-82
2021/07/18 10:05:29;;;;;;;4.80;2.10;;;;;;;28.92;38.92;100214.94;2201094;40;20031;-81
2021/07/18 10:07:07;;;;;;;6.43;1.90;;;;;;;28.69;39.44;100214.22;2200733;40;20354;-82
2021/07/18 10:08:40;;;;;;;4.43;1.65;;;;;;;28.54;39.27;100211.31;2201533;40;20062;-82
2021/07/18 10:10:13;;;;;;;5.50;2.10;;;;;;;28.59;39.29;100212.19;2202390;40;20340;-83
2021/07/18 10:11:45;;;;;;;4.88;1.63;;;;;;;28.90;38.93;100206.16;2201407;40;20034;-82
2021/07/18 10:13:17;;;;;;;6.78;2.00;;;;;;;29.06;38.60;100212.56;2201637;40;20241;-82
2021/07/18 10:14:48;;;;;;;6.25;1.92;;;;;;;29.24;38.55;100216.84;2199347;40;20371;-82
2021/07/18 10:16:22;;;;;;;6.75;2.20;;;;;;;29.35;38.06;100204.84;2202110;40;20604;-82
2021/07/18 10:17:54;;;;;;;6.68;1.90;;;;;;;29.14;37.87;100201.09;2202248;40;20031;-82
2021/07/18 10:19:25;;;;;;;5.53;2.10;;;;;;;28.99;38.11;100200.97;2203355;40;20198;-82
2021/07/18 10:20:59;;;;;;;3.95;1.60;;;;;;;29.36;38.08;100201.00;2202806;40;20034;-83
2021/07/18 10:22:33;;;;;;;6.13;2.03;;;;;;;29.44;37.57;100201.56;2202951;40;20031;-83
2021/07/18 10:24:06;;;;;;;7.40;2.50;;;;;;;29.22;37.74;100192.34;2203348;40;20019;-82
2021/07/18 10:25:38;;;;;;;5.70;2.20;;;;;;;29.08;37.57;100191.97;2203611;40;20027;-81
2021/07/18 10:27:10;;;;;;;6.40;2.33;;;;;;;29.32;37.50;100199.00;2203707;40;20031;-82
2021/07/18 10:28:41;;;;;;;5.38;2.30;;;;;;;29.55;36.73;100195.84;2203155;40;20038;-81
2021/07/18 10:30:17;;;;;;;6.70;1.98;;;;;;;29.68;37.17;100191.75;2203242;40;20042;-81
2021/07/18 10:31:50;;;;;;;4.72;1.55;;;;;;;30.01;36.15;100189.72;2202812;40;20089;-81
2021/07/18 10:33:22;;;;;;;5.43;1.80;;;;;;;30.11;36.04;100196.34;2202673;40;20179;-82
2021/07/18 10:34:59;;;;;;;3.80;1.60;;;;;;;29.75;35.66;100182.44;2201374;40;20059;-83
2021/07/18 10:36:30;;;;;;;6.38;2.22;;;;;;;29.62;35.99;100187.34;2201745;40;20418;-82
2021/07/18 10:38:16;;;;;;;5.95;2.13;;;;;;;29.52;35.67;100192.81;2200508;40;20038;-82
2021/07/18 10:39:48;;;;;;;5.63;2.38;;;;;;;29.08;36.50;100183.72;2200344;40;20038;-82
2021/07/18 10:41:42;;;;;;;5.88;2.03;;;;;;;28.95;36.87;100189.69;2201473;40;20038;-82
2021/07/18 10:43:39;;;;;;;8.52;2.40;;;;;;;29.09;37.04;100179.88;2201421;40;20023;-81
2021/07/18 10:45:23;;;;;;;5.97;2.33;;;;;;;29.03;36.94;100183.69;2202975;40;20031;-82
2021/07/18 10:46:55;;;;;;;8.25;2.90;;;;;;;29.03;36.26;100180.94;2200866;40;20042;-82
2021/07/18 10:48:41;;;;;;;6.00;2.10;;;;;;;29.13;36.71;100179.34;2201117;40;20046;-83
2021/07/18 10:50:13;;;;;;;4.85;2.20;;;;;;;29.44;36.21;100179.53;2201172;40;20062;-83
2021/07/18 10:51:50;;;;;;;4.63;2.13;;;;;;;29.83;35.86;100179.16;2201153;40;20027;-83
2021/07/18 10:53:25;;;;;;;6.13;2.47;;;;;;;30.14;35.11;100170.97;2201712;40;20094;-82
2021/07/18 10:54:57;;;;;;;6.43;2.53;;;;;;;30.47;34.55;100168.84;2196221;40;20073;-83
2021/07/18 10:56:42;;;;;;;8.60;3.33;;;;;;;30.27;34.94;100175.97;2201136;40;20315;-83
2021/07/18 10:58:44;;;;;;;5.10;2.75;;;;;;;29.80;35.46;100171.44;2200255;40;20031;-82
2021/07/18 11:00:23;;;;;;;4.63;2.10;;;;;;;29.30;36.39;100179.16;2201174;40;20089;-82
2021/07/18 11:02:05;;;;;;;6.32;2.50;;;;;;;29.15;36.39;100169.72;2201269;40;20046;-82
2021/07/18 11:03:37;;;;;;;5.88;2.55;;;;;;;28.92;37.13;100173.69;2201955;40;20035;-83
2021/07/18 11:05:15;;;;;;;6.60;2.83;;;;;;;28.68;37.19;100174.06;2200779;40;20039;-82
2021/07/18 11:06:46;;;;;;;5.72;2.90;;;;;;;28.44;38.25;100171.63;2200747;40;20386;-83
2021/07/18 11:08:18;;;;;;;5.30;2.83;;;;;;;28.59;38.22;100164.63;2201359;40;20057;-82
2021/07/18 11:09:51;;;;;;;7.10;2.83;;;;;;;28.46;37.53;100166.72;2200595;40;20178;-82
2021/07/18 11:11:37;;;;;;;7.07;2.70;;;;;;;28.36;37.66;100163.06;2200331;40;20023;-82
2021/07/18 11:13:10;;;;;;;8.57;3.30;;;;;;;28.32;37.74;100160.00;2202205;40;20050;-82
2021/07/18 11:14:42;;;;;;;5.00;2.17;;;;;;;28.39;37.87;100166.09;2202171;40;20041;-83
2021/07/18 11:16:49;;;;;;;15.45;3.10;;;;;;;28.35;38.44;100170.44;2200482;40;20411;-81
2021/07/18 11:18:34;;;;;;;8.43;3.05;;;;;;;28.36;38.72;100165.78;2181305;40;20043;-82
2021/07/18 11:20:06;;;;;;;5.40;2.78;;;;;;;28.36;38.99;100166.63;2182014;41;20348;-82
2021/07/18 11:21:48;;;;;;;6.32;2.53;;;;;;;28.38;39.18;100166.38;2182496;40;20147;-83
2021/07/18 11:23:20;;;;;;;5.85;2.78;;;;;;;28.35;39.29;100166.88;2185557;40;20057;-82
2021/07/18 11:24:56;;;;;;;6.07;2.92;;;;;;;28.39;39.15;100166.09;2200385;40;20046;-82
2021/07/18 11:26:27;;;;;;;5.72;2.95;;;;;;;28.39;38.34;100168.00;2200819;40;20362;-82
2021/07/18 11:27:58;;;;;;;5.03;2.88;;;;;;;28.49;38.54;100165.34;2200566;40;20323;-82
2021/07/18 11:29:34;;;;;;;6.53;2.58;;;;;;;28.47;38.46;100162.88;2200862;40;20050;-83
2021/07/18 11:31:32;;;;;;;9.43;4.20;;;;;;;28.31;38.10;100158.34;2200405;40;20035;-82
2021/07/18 11:33:27;;;;;;;6.45;3.70;;;;;;;28.31;38.47;100159.16;2197798;40;20035;-82
2021/07/18 11:35:00;;;;;;;9.60;3.67;;;;;;;28.37;38.31;100157.28;2200214;40;20038;-82
2021/07/18 11:36:52;;;;;;;8.98;3.90;;;;;;;28.39;37.30;100157.84;2198231;40;20474;-81
2021/07/18 11:38:24;;;;;;;7.75;3.38;;;;;;;28.08;37.30;100146.56;2201445;40;20043;-82
2021/07/18 11:40:02;;;;;;;8.63;3.80;;;;;;;27.98;37.69;100151.91;2200520;40;20039;-82
2021/07/18 11:41:33;;;;;;;5.68;3.30;;;;;;;28.08;38.24;100143.81;2201782;40;20043;-82
2021/07/18 11:43:05;;;;;;;7.72;3.10;;;;;;;28.26;38.33;100156.38;2200878;40;20034;-82
2021/07/18 11:44:39;;;;;;;6.13;3.22;;;;;;;28.30;38.58;100148.44;2200545;40;20039;-82
2021/07/18 11:46:10;;;;;;;7.88;3.50;;;;;;;28.30;38.96;100140.19;2199776;40;20046;-82
2021/07/18 11:47:43;;;;;;;8.15;3.40;;;;;;;28.36;39.13;100147.38;2200092;40;20039;-82
2021/07/18 11:49:16;;;;;;;6.75;3.45;;;;;;;28.29;38.82;100149.50;2199550;40;20057;-82
2021/07/18 11:50:48;;;;;;;5.47;3.40;;;;;;;28.26;39.11;100139.03;2199848;40;20226;-82
2021/07/18 11:52:22;;;;;;;11.60;3.50;;;;;;;28.23;39.21;100139.56;2200168;40;20035;-83
2021/07/18 11:53:54;;;;;;;7.50;3.55;;;;;;;28.18;39.40;100141.16;2199560;40;20035;-82
2021/07/18 11:55:30;;;;;;;6.32;3.30;;;;;;;28.26;38.89;100139.03;2200271;40;20033;-83
2021/07/18 11:57:04;;;;;;;6.43;3.58;;;;;;;28.33;39.01;100142.41;2209195;40;20587;-82
2021/07/18 11:58:35;;;;;;;8.20;3.97;;;;;;;28.23;38.91;100134.09;2213910;40;20078;-82
2021/07/18 12:00:08;;;;;;;7.53;3.95;;;;;;;28.14;38.94;100131.81;2214213;40;20037;-82
2021/07/18 12:01:40;;;;;;;8.10;3.80;;;;;;;28.17;38.72;100131.25;2212765;40;20038;-82
2021/07/18 12:03:12;;;;;;;7.05;3.78;;;;;;;28.21;38.98;100122.50;2200597;40;20042;-81
2021/07/18 12:04:44;;;;;;;9.50;4.30;;;;;;;28.22;38.63;100121.44;2200401;40;20038;-82
2021/07/18 12:06:17;;;;;;;9.73;4.03;;;;;;;28.12;39.04;100123.00;2200298;40;20241;-82
2021/07/18 12:07:49;;;;;;;7.63;4.82;;;;;;;28.03;39.15;100125.34;2196609;40;20322;-82
2021/07/18 12:09:21;;;;;;;8.17;4.50;;;;;;;27.92;39.21;100117.25;2256262;23;20416;-80
2021/07/18 12:11:03;;;;;;;10.13;5.05;;;;;;;27.93;39.01;100106.00;2212460;40;20026;-80
2021/07/18 12:12:35;;;;;;;11.93;5.18;;;;;;;27.90;39.12;100112.03;2215930;40;20036;-80